Time;durP1;ratioP1;P1;durP2;ratioP2;P2;SDS_P1;SDS_P2;PMS_P1;PMS_P2;Temp;Humidity;BMP_temperature;BMP_pressure;BME280_temperature;BME280_humidity;BME280_pressure;Samples;Min_cycle;Max_cycle;Signal;HPM_P1;HPM_P2
2022/10/26 00:00:08;;;;;;;8.70;3.60;;;;;;;;;;5005037;28;20503;-80
2022/10/26 00:02:35;;;;;;;9.65;4.57;;;;;;;;;;5004173;28;20498;-80
2022/10/26 00:05:05;;;;;;;11.25;4.57;;;;;;;;;;5003563;28;20046;-80
2022/10/26 00:07:32;;;;;;;9.02;4.18;;;;;;;;;;5022185;28;20431;-79
2022/10/26 00:10:00;;;;;;;11.23;4.22;;;;;;;;;;5021614;28;20053;-80
2022/10/26 00:12:27;;;;;;;19.98;3.97;;;;;;;;;;5021676;28;20136;-80
2022/10/26 00:14:56;;;;;;;5.13;3.40;;;;;;;;;;5004043;28;20100;-80
2022/10/26 00:17:23;;;;;;;8.20;3.63;;;;;;;;;;5003571;28;20422;-80
2022/10/26 00:19:51;;;;;;;5.10;3.85;;;;;;;;;;5004162;28;20474;-80
2022/10/26 00:22:18;;;;;;;7.30;3.78;;;;;;;;;;5004879;28;20117;-80
2022/10/26 00:24:45;;;;;;;11.77;4.05;;;;;;;;;;5004826;28;20128;-80
2022/10/26 00:27:13;;;;;;;7.18;3.53;;;;;;;;;;5004112;28;20076;-80
2022/10/26 00:29:40;;;;;;;10.27;4.10;;;;;;;;;;5003686;28;20046;-80
2022/10/26 00:32:07;;;;;;;7.30;4.05;;;;;;;;;;5020633;28;20082;-79
2022/10/26 00:34:35;;;;;;;8.18;3.45;;;;;;;;;;5003957;28;20201;-80
2022/10/26 00:37:03;;;;;;;9.95;4.20;;;;;;;;;;5003329;28;20422;-80
2022/10/26 00:39:30;;;;;;;5.40;4.03;;;;;;;;;;5003379;28;20057;-80
2022/10/26 00:41:58;;;;;;;7.63;3.63;;;;;;;;;;5000462;28;20088;-80
2022/10/26 00:44:54;;;;;;;6.70;3.67;;;;;;;;;;4999522;28;20110;-80
2022/10/26 00:47:30;;;;;;;18.52;3.83;;;;;;;;;;4999347;28;20226;-80
2022/10/26 00:49:59;;;;;;;6.80;4.00;;;;;;;;;;5001201;28;20137;-80
2022/10/26 00:52:27;;;;;;;5.50;3.35;;;;;;;;;;4999459;28;20507;-80
2022/10/26 00:54:55;;;;;;;10.82;4.10;;;;;;;;;;4999068;28;20065;-79
2022/10/26 00:57:23;;;;;;;9.63;3.72;;;;;;;;;;4998999;28;20054;-80
2022/10/26 01:00:08;;;;;;;11.02;4.43;;;;;;;;;;4999449;28;20108;-81
2022/10/26 01:02:36;;;;;;;8.20;4.70;;;;;;;;;;4999018;28;20054;-79
2022/10/26 01:05:04;;;;;;;7.68;3.97;;;;;;;;;;4998817;28;20097;-80
2022/10/26 01:07:33;;;;;;;9.70;4.10;;;;;;;;;;5017057;28;20057;-81
2022/10/26 01:10:01;;;;;;;7.43;4.32;;;;;;;;;;5010332;28;20105;-81
2022/10/26 01:12:29;;;;;;;5.53;3.67;;;;;;;;;;5002856;28;20130;-80
2022/10/26 01:14:56;;;;;;;10.43;4.20;;;;;;;;;;5000988;28;20078;-80
2022/10/26 01:17:28;;;;;;;9.52;4.57;;;;;;;;;;5000591;28;20451;-80
2022/10/26 01:20:14;;;;;;;8.40;3.78;;;;;;;;;;5000249;28;20132;-79
2022/10/26 01:22:50;;;;;;;6.60;4.10;;;;;;;;;;4999331;28;20133;-80
2022/10/26 01:25:24;;;;;;;7.05;3.38;;;;;;;;;;4998642;28;20085;-80
2022/10/26 01:27:52;;;;;;;8.30;3.75;;;;;;;;;;5000061;28;20086;-80
2022/10/26 01:30:24;;;;;;;9.52;3.75;;;;;;;;;;5000105;28;20046;-79
2022/10/26 01:32:57;;;;;;;6.97;3.60;;;;;;;;;;4999489;28;20066;-79
2022/10/26 01:35:29;;;;;;;7.75;3.47;;;;;;;;;;4998468;28;20085;-80
2022/10/26 01:37:59;;;;;;;5.72;3.50;;;;;;;;;;5001966;28;20058;-80
2022/10/26 01:40:34;;;;;;;9.38;3.38;;;;;;;;;;5000374;28;20141;-80
2022/10/26 01:43:05;;;;;;;7.88;4.00;;;;;;;;;;5002738;28;20054;-80
2022/10/26 01:45:33;;;;;;;4.28;3.65;;;;;;;;;;5004188;28;20046;-80
2022/10/26 01:48:02;;;;;;;8.02;4.18;;;;;;;;;;5004302;28;20057;-80
2022/10/26 01:50:31;;;;;;;4.50;3.78;;;;;;;;;;5004615;28;20586;-79
2022/10/26 01:52:58;;;;;;;10.82;3.97;;;;;;;;;;5003698;28;20061;-80
2022/10/26 01:55:38;;;;;;;11.93;4.07;;;;;;;;;;5003765;28;20049;-80
2022/10/26 01:58:11;;;;;;;10.90;4.30;;;;;;;;;;5003337;28;20499;-80
2022/10/26 02:03:15;;;;;;;6.32;3.28;;;;;;;;;;4977183;28;20065;-85
2022/10/26 02:05:52;;;;;;;7.72;3.65;;;;;;;;;;4979542;28;20043;-86
2022/10/26 02:08:26;;;;;;;7.88;4.35;;;;;;;;;;4978100;28;20054;-87
2022/10/26 02:11:20;;;;;;;7.28;3.70;;;;;;;;;;4984482;28;20096;-86
2022/10/26 02:13:50;;;;;;;5.88;3.85;;;;;;;;;;4987635;28;20034;-85
2022/10/26 02:16:20;;;;;;;8.70;3.80;;;;;;;;;;4993284;28;20050;-86
2022/10/26 02:19:11;;;;;;;14.50;4.45;;;;;;;;;;4983098;28;20085;-85
2022/10/26 02:21:41;;;;;;;7.00;3.45;;;;;;;;;;4969221;28;20058;-85
2022/10/26 02:24:10;;;;;;;5.55;3.35;;;;;;;;;;4976657;28;20398;-85
2022/10/26 02:26:39;;;;;;;6.28;3.83;;;;;;;;;;4977281;28;20052;-85
2022/10/26 02:29:08;;;;;;;6.03;3.97;;;;;;;;;;4979239;28;20490;-85
2022/10/26 02:31:36;;;;;;;9.18;3.90;;;;;;;;;;4978478;28;20485;-85
2022/10/26 02:34:06;;;;;;;8.18;3.50;;;;;;;;;;4997022;28;20050;-85
2022/10/26 02:36:35;;;;;;;8.63;3.95;;;;;;;;;;4979169;28;20085;-85
2022/10/26 02:39:07;;;;;;;6.28;3.75;;;;;;;;;;4996389;28;20482;-85
2022/10/26 02:41:35;;;;;;;6.55;3.58;;;;;;;;;;4979116;28;20073;-85
2022/10/26 02:44:07;;;;;;;8.15;3.67;;;;;;;;;;4996277;28;20054;-85
2022/10/26 02:46:35;;;;;;;7.63;4.65;;;;;;;;;;4978536;28;20050;-86
2022/10/26 02:49:02;;;;;;;11.57;4.20;;;;;;;;;;4978563;28;20416;-86
2022/10/26 02:51:46;;;;;;;4.97;3.65;;;;;;;;;;4978530;28;20050;-85
2022/10/26 02:54:33;;;;;;;6.47;3.40;;;;;;;;;;4979523;28;20058;-87
2022/10/26 02:57:03;;;;;;;8.10;4.10;;;;;;;;;;4998548;28;20088;-86
2022/10/26 02:59:33;;;;;;;4.10;3.70;;;;;;;;;;4980430;28;20501;-85
2022/10/26 03:02:00;;;;;;;7.65;4.10;;;;;;;;;;4980842;28;20050;-86
2022/10/26 03:04:28;;;;;;;5.15;4.07;;;;;;;;;;4980653;28;20050;-86
2022/10/26 03:06:55;;;;;;;7.65;4.10;;;;;;;;;;4980738;28;20054;-86
2022/10/26 03:09:23;;;;;;;5.20;3.55;;;;;;;;;;4980080;28;20057;-86
2022/10/26 03:11:51;;;;;;;7.82;3.70;;;;;;;;;;4997331;28;20081;-86
2022/10/26 03:14:19;;;;;;;6.60;3.35;;;;;;;;;;4979892;28;20042;-85
2022/10/26 03:16:46;;;;;;;15.18;5.03;;;;;;;;;;4979356;28;20050;-85
2022/10/26 03:19:13;;;;;;;11.20;4.28;;;;;;;;;;4979468;28;20054;-85
2022/10/26 03:21:41;;;;;;;7.57;4.47;;;;;;;;;;4996284;28;20050;-86
2022/10/26 03:24:08;;;;;;;9.25;4.00;;;;;;;;;;4997665;28;20054;-86
2022/10/26 03:26:35;;;;;;;9.85;4.20;;;;;;;;;;4997284;28;20424;-85
2022/10/26 03:29:03;;;;;;;5.32;3.88;;;;;;;;;;4978594;28;20057;-85
2022/10/26 03:31:30;;;;;;;8.50;4.10;;;;;;;;;;4978615;28;20056;-86
2022/10/26 03:33:58;;;;;;;4.03;3.63;;;;;;;;;;4982181;28;20042;-85
2022/10/26 03:36:25;;;;;;;8.43;4.45;;;;;;;;;;4981488;28;20053;-85
2022/10/26 03:38:52;;;;;;;6.82;4.07;;;;;;;;;;4981506;28;20046;-85
2022/10/26 03:41:19;;;;;;;11.23;4.63;;;;;;;;;;4998741;28;20073;-85
2022/10/26 03:43:47;;;;;;;9.02;4.22;;;;;;;;;;4981699;28;20129;-85
2022/10/26 03:46:15;;;;;;;7.05;4.53;;;;;;;;;;4998934;28;20042;-85
2022/10/26 03:48:42;;;;;;;4.20;3.80;;;;;;;;;;4981171;28;20046;-85
2022/10/26 03:51:09;;;;;;;6.78;4.30;;;;;;;;;;4979352;28;20513;-85
2022/10/26 03:53:36;;;;;;;12.40;4.68;;;;;;;;;;4996577;28;20058;-85
2022/10/26 03:56:03;;;;;;;5.28;4.15;;;;;;;;;;4979420;28;20065;-85
2022/10/26 03:58:30;;;;;;;5.95;4.68;;;;;;;;;;4980231;28;20054;-85
2022/10/26 04:00:58;;;;;;;8.18;4.50;;;;;;;;;;4982117;28;20448;-84
2022/10/26 04:03:25;;;;;;;6.72;4.70;;;;;;;;;;4983272;28;20050;-83
2022/10/26 04:05:52;;;;;;;7.53;4.55;;;;;;;;;;5001219;28;20050;-83
2022/10/26 04:08:19;;;;;;;6.10;4.30;;;;;;;;;;4981814;28;20121;-85
2022/10/26 04:10:46;;;;;;;7.88;4.55;;;;;;;;;;4982082;28;20073;-83
2022/10/26 04:13:14;;;;;;;9.13;5.47;;;;;;;;;;4981729;28;20046;-86
2022/10/26 04:15:42;;;;;;;11.32;4.78;;;;;;;;;;4981487;28;20055;-85
2022/10/26 04:18:11;;;;;;;10.75;5.45;;;;;;;;;;4982591;28;20053;-83
2022/10/26 04:20:41;;;;;;;13.38;5.30;;;;;;;;;;4981751;28;20133;-86
2022/10/26 04:23:12;;;;;;;6.72;4.32;;;;;;;;;;4982313;28;20129;-85
2022/10/26 04:25:40;;;;;;;8.00;4.15;;;;;;;;;;4982728;28;20494;-85
2022/10/26 04:28:07;;;;;;;9.82;4.90;;;;;;;;;;4982526;28;20390;-85
2022/10/26 04:30:35;;;;;;;15.07;4.38;;;;;;;;;;4981681;28;20060;-86
2022/10/26 04:33:03;;;;;;;11.13;4.80;;;;;;;;;;4998295;28;20417;-85
2022/10/26 04:35:30;;;;;;;14.70;5.07;;;;;;;;;;4998634;28;20612;-85
2022/10/26 04:38:01;;;;;;;14.45;8.15;;;;;;;;;;4982221;28;20058;-85
2022/10/26 04:40:29;;;;;;;18.98;8.48;;;;;;;;;;4983409;28;20061;-85
2022/10/26 04:42:56;;;;;;;12.45;6.88;;;;;;;;;;5002575;28;20051;-86
2022/10/26 04:45:24;;;;;;;9.50;6.22;;;;;;;;;;4986028;28;20065;-85
2022/10/26 04:48:03;;;;;;;12.85;6.20;;;;;;;;;;5003153;28;20072;-85
2022/10/26 04:50:30;;;;;;;18.05;6.70;;;;;;;;;;4983270;28;20042;-85
2022/10/26 04:52:57;;;;;;;11.90;6.00;;;;;;;;;;4983065;28;20049;-85
2022/10/26 04:55:24;;;;;;;13.45;7.47;;;;;;;;;;5000528;28;20050;-85
2022/10/26 04:57:52;;;;;;;15.07;6.82;;;;;;;;;;4983138;28;20056;-86
2022/10/26 05:00:24;;;;;;;14.30;5.38;;;;;;;;;;4982903;28;20060;-85
2022/10/26 05:02:52;;;;;;;12.68;5.20;;;;;;;;;;4982882;28;20476;-86
2022/10/26 05:05:19;;;;;;;7.53;4.68;;;;;;;;;;4981990;28;20085;-86
2022/10/26 05:07:53;;;;;;;12.18;4.45;;;;;;;;;;4983992;28;20105;-83
2022/10/26 05:10:20;;;;;;;8.45;4.85;;;;;;;;;;4982874;28;20111;-84
2022/10/26 05:12:54;;;;;;;13.73;4.30;;;;;;;;;;4982669;28;20053;-85
2022/10/26 05:15:22;;;;;;;8.45;3.55;;;;;;;;;;5000346;28;20046;-83
2022/10/26 05:18:04;;;;;;;9.48;3.88;;;;;;;;;;5000160;28;20046;-84
2022/10/26 05:20:32;;;;;;;13.85;3.72;;;;;;;;;;4981837;28;20398;-84
2022/10/26 05:23:00;;;;;;;9.18;4.15;;;;;;;;;;4999444;28;20054;-84
2022/10/26 05:25:28;;;;;;;13.82;4.32;;;;;;;;;;4997628;28;20046;-83
2022/10/26 05:27:59;;;;;;;13.75;5.05;;;;;;;;;;4977769;28;20065;-86
2022/10/26 05:30:27;;;;;;;12.07;5.03;;;;;;;;;;4996133;28;20494;-85
2022/10/26 05:32:54;;;;;;;12.38;4.55;;;;;;;;;;4978754;28;20058;-85
2022/10/26 05:35:22;;;;;;;10.57;4.28;;;;;;;;;;4988773;28;20038;-86
2022/10/26 05:37:49;;;;;;;7.38;4.22;;;;;;;;;;5014642;28;20049;-85
2022/10/26 05:40:16;;;;;;;6.95;4.43;;;;;;;;;;5003677;28;20051;-85
2022/10/26 05:42:44;;;;;;;7.40;3.95;;;;;;;;;;4981969;28;20050;-85
2022/10/26 05:45:12;;;;;;;8.15;4.53;;;;;;;;;;4999529;28;20054;-85
2022/10/26 05:47:43;;;;;;;5.55;3.67;;;;;;;;;;4980154;28;20057;-85
2022/10/26 05:50:11;;;;;;;5.72;4.28;;;;;;;;;;4996564;28;20134;-86
2022/10/26 05:52:39;;;;;;;6.78;4.57;;;;;;;;;;4978996;28;20129;-85
2022/10/26 05:55:07;;;;;;;10.60;4.72;;;;;;;;;;4978233;28;20046;-85
2022/10/26 05:57:35;;;;;;;12.05;4.80;;;;;;;;;;4996601;28;20509;-85
2022/10/26 06:00:10;;;;;;;6.75;4.72;;;;;;;;;;4979391;28;20064;-86
2022/10/26 06:02:47;;;;;;;6.60;4.72;;;;;;;;;;4977772;28;20062;-86
2022/10/26 06:05:20;;;;;;;7.07;5.10;;;;;;;;;;4977982;28;20065;-85
2022/10/26 06:07:48;;;;;;;8.07;5.00;;;;;;;;;;4977392;28;20057;-86
2022/10/26 06:10:16;;;;;;;4.70;4.30;;;;;;;;;;4976850;28;20047;-86
2022/10/26 06:12:44;;;;;;;4.90;3.85;;;;;;;;;;4977431;28;20082;-86
2022/10/26 06:15:21;;;;;;;17.98;7.45;;;;;;;;;;4977222;28;20487;-86
2022/10/26 06:17:52;;;;;;;14.15;8.43;;;;;;;;;;4978105;28;20053;-85
2022/10/26 06:20:32;;;;;;;10.65;6.85;;;;;;;;;;4976520;28;20051;-84
2022/10/26 06:23:05;;;;;;;11.45;5.30;;;;;;;;;;4978476;28;20057;-85
2022/10/26 06:25:32;;;;;;;;;;;;;;;;;;4976935;28;20138;-86
2022/10/26 06:27:59;;;;;;;31.48;8.90;;;;;;;;;;4992228;28;20373;-83
2022/10/26 06:30:27;;;;;;;20.40;9.43;;;;;;;;;;4977309;28;20073;-85
2022/10/26 06:32:55;;;;;;;7.18;6.22;;;;;;;;;;4976892;28;20074;-86
2022/10/26 06:35:44;;;;;;;8.32;4.05;;;;;;;;;;4977457;28;20449;-86
2022/10/26 06:38:14;;;;;;;5.63;3.33;;;;;;;;;;4976609;28;20173;-85
2022/10/26 06:40:42;;;;;;;17.92;4.70;;;;;;;;;;4976190;28;20114;-85
2022/10/26 06:43:19;;;;;;;13.95;5.43;;;;;;;;;;4976931;28;20050;-86
2022/10/26 06:45:47;;;;;;;11.60;5.88;;;;;;;;;;4977712;28;20510;-86
2022/10/26 06:48:19;;;;;;;9.23;4.03;;;;;;;;;;4975968;28;20046;-85
2022/10/26 06:50:51;;;;;;;9.88;4.50;;;;;;;;;;4977093;28;20062;-85
2022/10/26 06:53:25;;;;;;;9.00;4.30;;;;;;;;;;4977268;28;20050;-85
2022/10/26 06:55:53;;;;;;;27.83;6.60;;;;;;;;;;4978960;28;20054;-86
2022/10/26 06:58:21;;;;;;;12.63;6.47;;;;;;;;;;4977231;28;20058;-85
2022/10/26 07:00:49;;;;;;;8.35;5.20;;;;;;;;;;4977985;28;20055;-86
2022/10/26 07:03:17;;;;;;;12.60;6.25;;;;;;;;;;4997495;28;20056;-85
2022/10/26 07:05:44;;;;;;;16.77;6.90;;;;;;;;;;4978328;28;20532;-85
2022/10/26 07:08:12;;;;;;;18.75;8.63;;;;;;;;;;4980265;28;20137;-85
2022/10/26 07:10:41;;;;;;;6.32;4.95;;;;;;;;;;4980164;28;20043;-85
2022/10/26 07:13:09;;;;;;;17.30;6.20;;;;;;;;;;4997693;28;20056;-86
2022/10/26 07:15:36;;;;;;;6.13;5.53;;;;;;;;;;4980127;28;20058;-86
2022/10/26 07:18:05;;;;;;;9.00;5.07;;;;;;;;;;4997103;28;20126;-86
2022/10/26 07:20:35;;;;;;;11.20;4.35;;;;;;;;;;4998161;28;20042;-86
2022/10/26 07:23:02;;;;;;;10.80;4.78;;;;;;;;;;4984647;28;20418;-86
2022/10/26 07:25:29;;;;;;;7.85;4.80;;;;;;;;;;4982772;28;20094;-86
2022/10/26 07:28:00;;;;;;;11.77;4.45;;;;;;;;;;4982293;28;20046;-86
2022/10/26 07:30:28;;;;;;;6.63;3.45;;;;;;;;;;4981658;28;20046;-85
2022/10/26 07:32:59;;;;;;;9.38;5.00;;;;;;;;;;4998618;28;20050;-85
2022/10/26 07:35:26;;;;;;;7.38;4.22;;;;;;;;;;4985603;28;20137;-86
2022/10/26 07:38:00;;;;;;;7.25;4.63;;;;;;;;;;4985267;28;20054;-87
2022/10/26 07:40:27;;;;;;;6.78;4.40;;;;;;;;;;5004190;28;20054;-86
2022/10/26 07:42:58;;;;;;;12.85;6.93;;;;;;;;;;4984619;28;20054;-86
2022/10/26 07:45:26;;;;;;;18.58;10.57;;;;;;;;;;4986658;28;20520;-86
2022/10/26 07:47:53;;;;;;;14.38;8.82;;;;;;;;;;4984203;28;20042;-86
2022/10/26 07:50:20;;;;;;;7.22;4.28;;;;;;;;;;4984229;28;20050;-86
2022/10/26 07:52:48;;;;;;;6.50;3.53;;;;;;;;;;4986232;28;20042;-86
2022/10/26 07:55:15;;;;;;;18.27;4.35;;;;;;;;;;4984556;28;20104;-86
2022/10/26 07:57:42;;;;;;;10.65;4.28;;;;;;;;;;4986916;28;20420;-86
2022/10/26 08:00:10;;;;;;;8.25;4.53;;;;;;;;;;5003972;28;20074;-86
2022/10/26 08:02:38;;;;;;;5.93;3.40;;;;;;;;;;5035018;23;20520;-82
2022/10/26 08:05:05;;;;;;;7.43;3.38;;;;;;;;;;5015454;28;20582;-82
2022/10/26 08:07:33;;;;;;;6.13;3.50;;;;;;;;;;5015232;28;20078;-82
2022/10/26 08:10:00;;;;;;;3.60;3.13;;;;;;;;;;5015167;28;20556;-82
2022/10/26 08:12:27;;;;;;;6.63;3.45;;;;;;;;;;5015441;28;20140;-82
2022/10/26 08:14:54;;;;;;;7.10;3.35;;;;;;;;;;5015070;28;20512;-82
2022/10/26 08:17:22;;;;;;;11.80;4.82;;;;;;;;;;5014540;28;20099;-82
2022/10/26 08:19:49;;;;;;;9.70;3.83;;;;;;;;;;5014969;28;20111;-82
2022/10/26 08:22:17;;;;;;;9.18;3.40;;;;;;;;;;5015238;28;20054;-82
2022/10/26 08:24:45;;;;;;;7.40;3.75;;;;;;;;;;5015086;28;20057;-82
2022/10/26 08:27:13;;;;;;;9.80;3.90;;;;;;;;;;5014937;28;20119;-82
2022/10/26 08:29:41;;;;;;;8.05;4.38;;;;;;;;;;5014680;28;20145;-82
2022/10/26 08:32:09;;;;;;;34.00;5.95;;;;;;;;;;5015538;28;20080;-83
2022/10/26 08:34:36;;;;;;;22.70;4.95;;;;;;;;;;5014937;28;20103;-82
2022/10/26 08:37:03;;;;;;;22.80;5.35;;;;;;;;;;5016076;28;20458;-82
2022/10/26 08:39:31;;;;;;;13.75;4.90;;;;;;;;;;5015981;28;20093;-83
2022/10/26 08:42:03;;;;;;;16.92;4.32;;;;;;;;;;5014882;28;20116;-83
2022/10/26 08:44:47;;;;;;;18.35;4.60;;;;;;;;;;5015037;28;20487;-82
2022/10/26 08:47:17;;;;;;;16.00;4.68;;;;;;;;;;5015069;28;20144;-82
2022/10/26 08:49:52;;;;;;;11.60;3.55;;;;;;;;;;5014629;28;20056;-83
2022/10/26 08:52:25;;;;;;;10.45;4.10;;;;;;;;;;5015800;28;20121;-83
2022/10/26 08:54:55;;;;;;;14.23;4.35;;;;;;;;;;5014514;28;20046;-82
2022/10/26 08:57:27;;;;;;;9.38;4.03;;;;;;;;;;5014169;28;20499;-82
2022/10/26 08:59:54;;;;;;;11.80;4.22;;;;;;;;;;5015324;28;20140;-83
2022/10/26 09:02:23;;;;;;;11.90;3.75;;;;;;;;;;5014140;28;20137;-82
2022/10/26 09:04:52;;;;;;;10.88;3.90;;;;;;;;;;5015279;28;20053;-82
2022/10/26 09:07:20;;;;;;;7.93;3.75;;;;;;;;;;5014131;28;20141;-83
2022/10/26 09:10:02;;;;;;;5.15;3.83;;;;;;;;;;5015120;28;20137;-82
2022/10/26 09:12:43;;;;;;;12.32;3.78;;;;;;;;;;5013912;28;20053;-83
2022/10/26 09:15:14;;;;;;;6.95;3.45;;;;;;;;;;5013897;28;20454;-83
2022/10/26 09:17:52;;;;;;;14.52;4.50;;;;;;;;;;5013751;28;20057;-84
2022/10/26 09:20:25;;;;;;;12.65;4.60;;;;;;;;;;5014866;28;20570;-83
2022/10/26 09:23:31;;;;;;;10.90;3.90;;;;;;;;;;5013562;28;20451;-83
2022/10/26 09:26:00;;;;;;;18.77;4.20;;;;;;;;;;4977071;28;20393;-83
2022/10/26 09:28:29;;;;;;;17.88;5.65;;;;;;;;;;4976660;28;20185;-83
2022/10/26 09:30:58;;;;;;;20.73;6.80;;;;;;;;;;4994357;28;20483;-84
2022/10/26 09:33:26;;;;;;;13.32;7.15;;;;;;;;;;5013407;28;20125;-84
2022/10/26 09:36:02;;;;;;;13.77;8.73;;;;;;;;;;5013682;28;20060;-83
2022/10/26 09:38:29;;;;;;;26.73;14.85;;;;;;;;;;5013561;28;20144;-85
2022/10/26 09:41:12;;;;;;;30.00;19.17;;;;;;;;;;5014539;28;20054;-84
2022/10/26 09:43:45;;;;;;;58.03;36.38;;;;;;;;;;5012859;28;20079;-85
2022/10/26 09:46:15;;;;;;;51.00;33.70;;;;;;;;;;5013338;28;20056;-85
2022/10/26 09:48:46;;;;;;;42.50;29.33;;;;;;;;;;5013244;28;20128;-85
2022/10/26 09:51:15;;;;;;;41.83;26.27;;;;;;;;;;5013164;28;20049;-85
2022/10/26 09:53:42;;;;;;;31.60;20.75;;;;;;;;;;5013083;28;20129;-85
2022/10/26 09:56:10;;;;;;;33.33;22.38;;;;;;;;;;5013071;28;20049;-86
2022/10/26 09:58:41;;;;;;;36.83;25.42;;;;;;;;;;5012825;28;20137;-85
2022/10/26 10:01:20;;;;;;;33.80;22.73;;;;;;;;;;5013197;28;20084;-85
2022/10/26 10:03:48;;;;;;;26.92;17.85;;;;;;;;;;5013210;28;20144;-85
2022/10/26 10:06:15;;;;;;;21.33;12.45;;;;;;;;;;5014130;28;20085;-85
2022/10/26 10:08:42;;;;;;;19.55;12.52;;;;;;;;;;5012613;28;20133;-85
2022/10/26 10:11:10;;;;;;;31.10;15.05;;;;;;;;;;5013210;28;20046;-88
2022/10/26 10:13:39;;;;;;;29.88;15.82;;;;;;;;;;5013078;28;20112;-89
2022/10/26 10:16:12;;;;;;;27.40;15.55;;;;;;;;;;5013104;28;20046;-90
2022/10/26 10:18:41;;;;;;;24.10;13.27;;;;;;;;;;5012822;28;20054;-90
2022/10/26 10:21:09;;;;;;;18.45;9.88;;;;;;;;;;5014067;28;20419;-90
2022/10/26 10:23:47;;;;;;;12.05;8.25;;;;;;;;;;5012874;28;20103;-90
2022/10/26 10:26:15;;;;;;;17.23;9.05;;;;;;;;;;5013206;28;20077;-87
2022/10/26 10:28:42;;;;;;;18.42;7.93;;;;;;;;;;5012581;28;20499;-87
2022/10/26 10:31:27;;;;;;;17.95;7.60;;;;;;;;;;5012713;28;20118;-87
2022/10/26 10:33:55;;;;;;;13.50;7.72;;;;;;;;;;5012933;28;20084;-87
2022/10/26 10:36:24;;;;;;;14.05;7.60;;;;;;;;;;5013720;28;20050;-87
2022/10/26 10:38:53;;;;;;;42.08;19.13;;;;;;;;;;5012298;28;20149;-87
2022/10/26 10:41:25;;;;;;;52.30;27.70;;;;;;;;;;5012483;28;20053;-87
2022/10/26 10:43:54;;;;;;;21.85;10.98;;;;;;;;;;5012397;28;20088;-87
2022/10/26 10:46:24;;;;;;;15.73;9.45;;;;;;;;;;5012474;28;20057;-88
2022/10/26 10:48:54;;;;;;;15.60;8.02;;;;;;;;;;5011693;28;20656;-88
2022/10/26 10:51:23;;;;;;;14.93;7.22;;;;;;;;;;5012512;28;20050;-87
2022/10/26 10:53:52;;;;;;;16.15;6.85;;;;;;;;;;5012576;28;20070;-87
2022/10/26 10:56:25;;;;;;;11.07;5.75;;;;;;;;;;5012546;28;20149;-87
2022/10/26 10:59:01;;;;;;;14.18;6.55;;;;;;;;;;5012122;28;20056;-88
2022/10/26 11:01:39;;;;;;;14.70;6.22;;;;;;;;;;5012169;28;20050;-87
2022/10/26 11:04:16;;;;;;;10.82;5.30;;;;;;;;;;5012453;28;20082;-88
2022/10/26 11:06:45;;;;;;;9.38;5.18;;;;;;;;;;5012257;28;20143;-89
2022/10/26 11:09:19;;;;;;;10.82;5.65;;;;;;;;;;5012151;28;20050;-88
2022/10/26 11:11:55;;;;;;;15.75;6.38;;;;;;;;;;5012135;28;20514;-89
2022/10/26 11:14:27;;;;;;;23.88;11.65;;;;;;;;;;5012778;28;20052;-88
2022/10/26 11:16:56;;;;;;;15.90;9.57;;;;;;;;;;5012271;28;20057;-88
2022/10/26 11:19:30;;;;;;;13.00;5.50;;;;;;;;;;5012387;28;20073;-88
2022/10/26 11:21:59;;;;;;;13.07;5.10;;;;;;;;;;5012270;28;20050;-89
2022/10/26 11:24:31;;;;;;;10.18;6.22;;;;;;;;;;5013108;28;20073;-88
2022/10/26 11:27:10;;;;;;;15.65;7.70;;;;;;;;;;5013433;28;20072;-89
2022/10/26 11:29:40;;;;;;;16.67;7.35;;;;;;;;;;5012510;28;20042;-86
2022/10/26 11:32:20;;;;;;;21.33;8.23;;;;;;;;;;5012665;28;20426;-86
2022/10/26 11:34:57;;;;;;;23.85;8.00;;;;;;;;;;5012049;28;20125;-86
2022/10/26 11:37:40;;;;;;;20.73;7.35;;;;;;;;;;5012212;28;20140;-86
2022/10/26 11:40:26;;;;;;;25.65;7.38;;;;;;;;;;5012344;28;20056;-85
2022/10/26 11:42:53;;;;;;;15.20;6.55;;;;;;;;;;5012400;28;20046;-86
2022/10/26 11:45:42;;;;;;;14.88;6.25;;;;;;;;;;5012119;28;20563;-85
2022/10/26 11:48:42;;;;;;;13.27;5.78;;;;;;;;;;5012263;28;20052;-85
2022/10/26 11:51:15;;;;;;;15.75;5.70;;;;;;;;;;4990948;28;20050;-85
2022/10/26 11:53:44;;;;;;;10.43;4.60;;;;;;;;;;5014301;28;20561;-85
2022/10/26 11:56:24;;;;;;;10.77;3.60;;;;;;;;;;5016111;28;20487;-86
2022/10/26 11:58:52;;;;;;;6.65;3.50;;;;;;;;;;5016074;28;20046;-85
2022/10/26 12:01:20;;;;;;;6.05;3.22;;;;;;;;;;5016180;28;20057;-85
2022/10/26 12:03:50;;;;;;;4.80;2.90;;;;;;;;;;5015646;28;20054;-85
2022/10/26 12:06:22;;;;;;;9.00;3.58;;;;;;;;;;5016808;28;20506;-87
2022/10/26 12:08:59;;;;;;;11.13;4.20;;;;;;;;;;5016221;28;20104;-87
2022/10/26 12:11:39;;;;;;;10.13;4.25;;;;;;;;;;5016527;28;20053;-87
2022/10/26 12:14:07;;;;;;;11.40;4.72;;;;;;;;;;5016356;28;20411;-86
2022/10/26 12:16:49;;;;;;;154.20;60.88;;;;;;;;;;5015882;28;20069;-85
2022/10/26 12:19:21;;;;;;;19.77;7.03;;;;;;;;;;5015555;28;20498;-85
2022/10/26 12:21:49;;;;;;;39.33;15.35;;;;;;;;;;5015756;28;20050;-85
2022/10/26 12:24:23;;;;;;;32.55;14.07;;;;;;;;;;5015507;28;20092;-87
2022/10/26 12:26:53;;;;;;;130.00;49.30;;;;;;;;;;5014887;28;20057;-87
2022/10/26 12:29:30;;;;;;;37.53;12.68;;;;;;;;;;5014542;28;20050;-86
2022/10/26 12:31:58;;;;;;;31.17;9.25;;;;;;;;;;5015504;28;20050;-85
2022/10/26 12:34:31;;;;;;;11.70;4.30;;;;;;;;;;5015532;28;20149;-85
2022/10/26 12:36:59;;;;;;;10.30;2.13;;;;;;;;;;5015167;28;20045;-86
2022/10/26 12:39:27;;;;;;;6.90;2.00;;;;;;;;;;5016494;28;20058;-86
2022/10/26 12:42:09;;;;;;;7.28;1.65;;;;;;;;;;5015622;28;20105;-86
2022/10/26 12:45:00;;;;;;;4.90;1.60;;;;;;;;;;5015001;28;20392;-87
2022/10/26 12:47:31;;;;;;;4.57;1.45;;;;;;;;;;5014161;28;20089;-85
2022/10/26 12:50:08;;;;;;;2.75;1.50;;;;;;;;;;5014542;28;20056;-87
2022/10/26 12:52:41;;;;;;;2.22;1.42;;;;;;;;;;5014874;28;20412;-87
2022/10/26 12:55:12;;;;;;;2.70;1.38;;;;;;;;;;5014888;28;20112;-86
2022/10/26 12:57:54;;;;;;;6.05;1.60;;;;;;;;;;5015601;28;20050;-86
2022/10/26 13:00:23;;;;;;;9.00;1.55;;;;;;;;;;5016145;28;20064;-86
2022/10/26 13:03:10;;;;;;;4.32;1.30;;;;;;;;;;5015595;28;20054;-86
2022/10/26 13:05:37;;;;;;;6.18;1.33;;;;;;;;;;5015339;28;20109;-86
2022/10/26 13:08:09;;;;;;;1.85;1.38;;;;;;;;;;5015489;28;20094;-84
2022/10/26 13:10:39;;;;;;;3.70;1.27;;;;;;;;;;5015549;28;20056;-85
2022/10/26 13:13:07;;;;;;;6.55;1.52;;;;;;;;;;5015837;28;20141;-87
2022/10/26 13:15:53;;;;;;;6.55;1.92;;;;;;;;;;5015530;28;20045;-86
2022/10/26 13:18:21;;;;;;;7.40;1.73;;;;;;;;;;5016771;28;20136;-84
2022/10/26 13:21:07;;;;;;;2.25;1.25;;;;;;;;;;5018600;28;20136;-83
2022/10/26 13:23:38;;;;;;;6.05;1.42;;;;;;;;;;5015020;28;20062;-88
2022/10/26 13:26:05;;;;;;;7.68;1.40;;;;;;;;;;5015440;28;20530;-85
2022/10/26 13:28:38;;;;;;;5.75;1.50;;;;;;;;;;5015680;28;20467;-84
2022/10/26 13:31:10;;;;;;;15.13;2.25;;;;;;;;;;5015506;28;20089;-86
2022/10/26 13:33:42;;;;;;;4.00;1.60;;;;;;;;;;5015532;28;20053;-85
2022/10/26 13:36:23;;;;;;;5.25;1.33;;;;;;;;;;5015020;28;20144;-85
2022/10/26 13:38:51;;;;;;;3.55;1.48;;;;;;;;;;5014338;28;20060;-85
2022/10/26 13:41:22;;;;;;;4.78;1.33;;;;;;;;;;5014417;28;20049;-85
2022/10/26 13:43:51;;;;;;;5.45;1.50;;;;;;;;;;5015705;28;20085;-86
2022/10/26 13:46:22;;;;;;;3.65;1.40;;;;;;;;;;5014883;28;20050;-84
2022/10/26 13:48:49;;;;;;;4.45;1.38;;;;;;;;;;5015267;28;20045;-84
2022/10/26 13:51:25;;;;;;;3.28;1.20;;;;;;;;;;5015708;28;20483;-84
2022/10/26 13:53:55;;;;;;;4.80;1.70;;;;;;;;;;5013459;28;20132;-85
2022/10/26 13:56:22;;;;;;;4.35;1.40;;;;;;;;;;5014296;28;20077;-83
2022/10/26 13:59:08;;;;;;;10.80;2.03;;;;;;;;;;5013437;28;20414;-85
2022/10/26 14:01:35;;;;;;;7.07;1.45;;;;;;;;;;5015411;28;20045;-84
2022/10/26 14:04:16;;;;;;;6.68;1.45;;;;;;;;;;5013523;28;20069;-84
2022/10/26 14:06:49;;;;;;;3.90;1.63;;;;;;;;;;5013331;28;20495;-86
2022/10/26 14:09:17;;;;;;;10.23;1.75;;;;;;;;;;5013489;28;20048;-85
2022/10/26 14:11:48;;;;;;;5.95;1.48;;;;;;;;;;5014705;28;20045;-86
2022/10/26 14:14:20;;;;;;;5.80;1.30;;;;;;;;;;5013542;28;20052;-86
2022/10/26 14:16:49;;;;;;;2.92;1.70;;;;;;;;;;5012816;28;20156;-85
2022/10/26 14:19:27;;;;;;;4.57;1.50;;;;;;;;;;5013179;28;20060;-82
2022/10/26 14:21:56;;;;;;;12.10;1.98;;;;;;;;;;5013514;28;20065;-86
2022/10/26 14:24:28;;;;;;;3.35;1.30;;;;;;;;;;5013075;28;20086;-86
2022/10/26 14:27:16;;;;;;;11.52;1.60;;;;;;;;;;5013190;28;20056;-87
2022/10/26 14:29:44;;;;;;;2.60;1.23;;;;;;;;;;5012800;28;20041;-87
2022/10/26 14:32:34;;;;;;;5.13;1.75;;;;;;;;;;5013248;28;20045;-87
2022/10/26 14:35:02;;;;;;;8.23;1.42;;;;;;;;;;5013445;28;20054;-86
2022/10/26 14:37:35;;;;;;;3.25;1.30;;;;;;;;;;5014701;28;20503;-85
2022/10/26 14:40:03;;;;;;;4.90;1.60;;;;;;;;;;5014802;28;20104;-85
2022/10/26 14:42:33;;;;;;;6.63;2.10;;;;;;;;;;5014584;28;20092;-85
2022/10/26 14:45:00;;;;;;;3.72;1.38;;;;;;;;;;5014874;28;20049;-85
2022/10/26 14:47:30;;;;;;;3.20;1.50;;;;;;;;;;5014120;28;20045;-88
2022/10/26 14:49:59;;;;;;;11.10;1.98;;;;;;;;;;5014804;28;20041;-86
2022/10/26 14:52:34;;;;;;;9.25;1.67;;;;;;;;;;5015061;28;20491;-87
2022/10/26 14:55:12;;;;;;;7.05;2.00;;;;;;;;;;5016359;28;20133;-83
2022/10/26 14:57:40;;;;;;;3.60;1.48;;;;;;;;;;5016562;28;20073;-85
2022/10/26 15:00:16;;;;;;;6.95;1.73;;;;;;;;;;5014813;28;20041;-86